Flugplatz Sprossen

Für EDCH sind keine METAR/TAF Berichte vorhanden.
Es werden die Flugwettermeldungen vom Flugplatz Altenburg-Nobitz in 20 km Entfernung angezeigt.

Bericht für EDAC

vom 07.03. um 02:50 UTC

Wind 4 kt aus 180°

Sichtweite 10 km oder mehr

gering bewölkt in 3800 ft

Temperatur -2.0°C

Taupunkt -5.0°C

Luftfeuchtigkeit 80%

Luftdruck 1026 hPa

EDAC 070250Z AUTO 18004KT 9999 // FEW038/// M02/M05 Q1026
Keine Prognose (TAF) verfügbar.
Impressum